AVA78 SKBO-TNCC
Flight info
| Callsign | AVA78 |
|---|---|
| Flight time | 1h 23m |
| Altitude | 37000 |
| Route | DANSA4R KOVBU UW1 ENPUT UG431 ALCOT DCT EMAPA EMAPA1B |
| Aircraft | A320/M-SDE3FGHIRWY/LB1 |
Departure
| Time | 2026-04-22 15:08 |
|---|---|
| Airport | El Dorado International Airport (SKBO) |
Arrival
| Time | 2026-04-22 16:31 |
|---|---|
| Airport | Hato International Airport (TNCC) |
| Time | Latitude | Longitude | Altitude | Speed | Heading |
|---|---|---|---|---|---|
| 2026-04-22 14:47 | 4.69755 | -74.14496 | 8366 ft | 0 kts | 37° |
| 2026-04-22 14:56 | 4.69742 | -74.14505 | 8366 ft | 4 kts | 37° |
| 2026-04-22 14:56 | 4.69724 | -74.14518 | 8366 ft | 4 kts | 20° |
| 2026-04-22 14:56 | 4.69702 | -74.14519 | 8366 ft | 4 kts | 317° |
| 2026-04-22 14:57 | 4.69687 | -74.14498 | 8366 ft | 4 kts | 301° |
| 2026-04-22 14:57 | 4.69685 | -74.14494 | 8366 ft | 4 kts | 307° |
| 2026-04-22 14:57 | 4.69701 | -74.14515 | 8366 ft | 4 kts | 307° |
| 2026-04-22 14:57 | 4.69718 | -74.14537 | 8366 ft | 4 kts | 307° |
| 2026-04-22 14:58 | 4.69734 | -74.14559 | 8366 ft | 4 kts | 307° |
| 2026-04-22 14:58 | 4.69751 | -74.14580 | 8366 ft | 4 kts | 307° |
| 2026-04-22 14:58 | 4.69767 | -74.14602 | 8366 ft | 4 kts | 307° |
| 2026-04-22 14:58 | 4.69778 | -74.14616 | 8366 ft | 4 kts | 307° |
| 2026-04-22 14:59 | 4.69783 | -74.14623 | 8366 ft | 0 kts | 307° |
| 2026-04-22 15:01 | 4.69786 | -74.14627 | 8366 ft | 4 kts | 307° |
| 2026-04-22 15:01 | 4.69819 | -74.14672 | 8366 ft | 12 kts | 307° |
| 2026-04-22 15:02 | 4.69896 | -74.14700 | 8366 ft | 17 kts | 30° |
| 2026-04-22 15:02 | 4.70009 | -74.14615 | 8366 ft | 24 kts | 36° |
| 2026-04-22 15:02 | 4.70137 | -74.14518 | 8366 ft | 20 kts | 35° |
| 2026-04-22 15:02 | 4.70251 | -74.14434 | 8366 ft | 20 kts | 37° |
| 2026-04-22 15:03 | 4.70363 | -74.14349 | 8366 ft | 20 kts | 38° |
| 2026-04-22 15:03 | 4.70446 | -74.14352 | 8367 ft | 13 kts | 310° |
| 2026-04-22 15:03 | 4.70503 | -74.14427 | 8366 ft | 14 kts | 307° |
| 2026-04-22 15:03 | 4.70562 | -74.14509 | 8367 ft | 15 kts | 304° |
| 2026-04-22 15:04 | 4.70626 | -74.14593 | 8367 ft | 16 kts | 307° |
| 2026-04-22 15:04 | 4.70693 | -74.14681 | 8367 ft | 16 kts | 307° |
| 2026-04-22 15:04 | 4.70765 | -74.14774 | 8366 ft | 17 kts | 307° |
| 2026-04-22 15:04 | 4.70838 | -74.14873 | 8367 ft | 18 kts | 306° |
| 2026-04-22 15:05 | 4.70914 | -74.14975 | 8366 ft | 19 kts | 309° |
| 2026-04-22 15:05 | 4.70995 | -74.15080 | 8366 ft | 19 kts | 307° |
| 2026-04-22 15:05 | 4.71078 | -74.15186 | 8366 ft | 19 kts | 310° |
| 2026-04-22 15:05 | 4.71185 | -74.15218 | 8366 ft | 12 kts | 353° |
| 2026-04-22 15:06 | 4.71205 | -74.15220 | 8367 ft | 0 kts | 352° |
| 2026-04-22 15:06 | 4.71209 | -74.15221 | 8366 ft | 4 kts | 352° |
| 2026-04-22 15:07 | 4.71274 | -74.15228 | 8366 ft | 6 kts | 4° |
| 2026-04-22 15:07 | 4.71320 | -74.15204 | 8366 ft | 6 kts | 34° |
| 2026-04-22 15:07 | 4.71293 | -74.15146 | 8365 ft | 24 kts | 128° |
| 2026-04-22 15:07 | 4.71040 | -74.14808 | 8364 ft | 95 kts | 127° |
| 2026-04-22 15:08 | 4.70514 | -74.14114 | 8366 ft | 153 kts | 127° |
| 2026-04-22 15:08 | 4.69776 | -74.13133 | 8383 ft | 197 kts | 126° |
| 2026-04-22 15:08 | 4.68990 | -74.12012 | 9203 ft | 194 kts | 122° |
| 2026-04-22 15:08 | 4.68580 | -74.10767 | 9910 ft | 193 kts | 86° |
| 2026-04-22 15:09 | 4.69132 | -74.09506 | 10115 ft | 212 kts | 41° |
| 2026-04-22 15:09 | 4.70496 | -74.08796 | 10294 ft | 234 kts | 19° |
| 2026-04-22 15:09 | 4.72101 | -74.08322 | 10688 ft | 245 kts | 15° |
| 2026-04-22 15:09 | 4.73757 | -74.07882 | 11372 ft | 247 kts | 15° |
| 2026-04-22 15:10 | 4.75429 | -74.07422 | 12073 ft | 251 kts | 16° |
| 2026-04-22 15:10 | 4.77129 | -74.06924 | 12621 ft | 264 kts | 17° |
| 2026-04-22 15:10 | 4.78965 | -74.06358 | 12906 ft | 288 kts | 18° |
| 2026-04-22 15:10 | 4.80943 | -74.05723 | 13155 ft | 307 kts | 18° |
| 2026-04-22 15:11 | 4.83005 | -74.05042 | 13777 ft | 316 kts | 19° |
| 2026-04-22 15:11 | 4.85102 | -74.04339 | 14459 ft | 321 kts | 19° |
| 2026-04-22 15:11 | 4.87231 | -74.03618 | 15114 ft | 325 kts | 19° |
| 2026-04-22 15:11 | 4.89390 | -74.02883 | 15751 ft | 330 kts | 19° |
| 2026-04-22 15:12 | 4.91579 | -74.02138 | 16414 ft | 333 kts | 19° |
| 2026-04-22 15:12 | 4.93792 | -74.01384 | 16798 ft | 338 kts | 18° |
| 2026-04-22 15:12 | 4.96004 | -74.00629 | 17263 ft | 341 kts | 19° |
| 2026-04-22 15:12 | 4.98255 | -73.99861 | 17962 ft | 342 kts | 18° |
| 2026-04-22 15:13 | 5.00525 | -73.99091 | 18625 ft | 346 kts | 18° |
| 2026-04-22 15:13 | 5.02827 | -73.98345 | 19163 ft | 349 kts | 15° |
| 2026-04-22 15:13 | 5.05180 | -73.97699 | 19725 ft | 352 kts | 13° |
| 2026-04-22 15:13 | 5.07570 | -73.97112 | 20285 ft | 354 kts | 12° |
| 2026-04-22 15:14 | 5.09980 | -73.96548 | 20834 ft | 357 kts | 12° |
| 2026-04-22 15:14 | 5.12409 | -73.95983 | 21391 ft | 360 kts | 12° |
| 2026-04-22 15:14 | 5.14855 | -73.95403 | 21935 ft | 362 kts | 12° |
| 2026-04-22 15:14 | 5.17312 | -73.94808 | 22485 ft | 365 kts | 13° |
| 2026-04-22 15:15 | 5.19795 | -73.94196 | 23024 ft | 368 kts | 13° |
| 2026-04-22 15:15 | 5.22287 | -73.93573 | 23552 ft | 371 kts | 13° |
| 2026-04-22 15:15 | 5.24801 | -73.92943 | 24064 ft | 373 kts | 13° |
| 2026-04-22 15:15 | 5.27298 | -73.92317 | 24494 ft | 376 kts | 13° |
| 2026-04-22 15:16 | 5.29843 | -73.91682 | 24938 ft | 378 kts | 13° |
| 2026-04-22 15:16 | 5.32409 | -73.91040 | 25390 ft | 381 kts | 13° |
| 2026-04-22 15:16 | 5.34988 | -73.90396 | 25827 ft | 383 kts | 13° |
| 2026-04-22 15:16 | 5.37585 | -73.89748 | 26283 ft | 386 kts | 13° |
| 2026-04-22 15:17 | 5.40194 | -73.89098 | 26732 ft | 388 kts | 13° |
| 2026-04-22 15:17 | 5.42828 | -73.88443 | 27166 ft | 390 kts | 14° |
| 2026-04-22 15:17 | 5.45470 | -73.87788 | 27622 ft | 392 kts | 14° |
| 2026-04-22 15:17 | 5.48130 | -73.87127 | 28059 ft | 395 kts | 14° |
| 2026-04-22 15:18 | 5.50805 | -73.86460 | 28473 ft | 398 kts | 15° |
| 2026-04-22 15:18 | 5.53438 | -73.85585 | 28888 ft | 400 kts | 23° |
| 2026-04-22 15:18 | 5.55934 | -73.84335 | 29294 ft | 402 kts | 30° |
| 2026-04-22 15:18 | 5.58372 | -73.82938 | 29731 ft | 405 kts | 31° |
| 2026-04-22 15:19 | 5.60829 | -73.81540 | 30138 ft | 407 kts | 30° |
| 2026-04-22 15:19 | 5.63302 | -73.80141 | 30509 ft | 409 kts | 30° |
| 2026-04-22 15:19 | 5.65793 | -73.78736 | 30877 ft | 412 kts | 31° |
| 2026-04-22 15:19 | 5.68297 | -73.77324 | 31232 ft | 414 kts | 30° |
| 2026-04-22 15:20 | 5.69994 | -73.76367 | 31467 ft | 415 kts | 31° |
| 2026-04-22 15:20 | 5.73342 | -73.74477 | 32008 ft | 416 kts | 30° |
| 2026-04-22 15:20 | 5.75854 | -73.73058 | 32497 ft | 414 kts | 31° |
| 2026-04-22 15:20 | 5.78362 | -73.71640 | 32972 ft | 413 kts | 31° |
| 2026-04-22 15:21 | 5.80861 | -73.70225 | 33438 ft | 412 kts | 31° |
| 2026-04-22 15:21 | 5.83357 | -73.68812 | 33874 ft | 411 kts | 31° |
| 2026-04-22 15:21 | 5.85846 | -73.67401 | 34255 ft | 411 kts | 31° |
| 2026-04-22 15:21 | 5.88338 | -73.65987 | 34589 ft | 411 kts | 31° |
| 2026-04-22 15:22 | 5.90828 | -73.64574 | 34937 ft | 411 kts | 31° |
| 2026-04-22 15:22 | 5.93314 | -73.63164 | 35310 ft | 410 kts | 31° |
| 2026-04-22 15:22 | 5.95798 | -73.61755 | 35677 ft | 409 kts | 31° |
| 2026-04-22 15:22 | 5.98275 | -73.60351 | 36034 ft | 408 kts | 31° |
| 2026-04-22 15:23 | 6.00749 | -73.58950 | 36352 ft | 408 kts | 31° |
| 2026-04-22 15:23 | 6.03215 | -73.57556 | 36694 ft | 407 kts | 31° |
| 2026-04-22 15:23 | 6.05684 | -73.56163 | 37014 ft | 407 kts | 32° |
| 2026-04-22 15:23 | 6.08156 | -73.54766 | 37136 ft | 407 kts | 32° |
| 2026-04-22 15:24 | 6.13089 | -73.51972 | 37137 ft | 406 kts | 32° |
| 2026-04-22 15:24 | 6.18001 | -73.49181 | 37132 ft | 406 kts | 32° |
| 2026-04-22 15:25 | 6.22926 | -73.46388 | 37135 ft | 407 kts | 31° |
| 2026-04-22 15:25 | 6.27857 | -73.43589 | 37117 ft | 407 kts | 31° |
| 2026-04-22 15:26 | 6.32794 | -73.40786 | 37120 ft | 408 kts | 31° |
| 2026-04-22 15:26 | 6.37738 | -73.37986 | 37117 ft | 407 kts | 31° |
| 2026-04-22 15:27 | 6.42670 | -73.35182 | 37114 ft | 407 kts | 31° |
| 2026-04-22 15:27 | 6.47566 | -73.32395 | 37097 ft | 407 kts | 31° |
| 2026-04-22 15:28 | 6.52501 | -73.29594 | 37103 ft | 407 kts | 32° |
| 2026-04-22 15:28 | 6.57531 | -73.26733 | 37101 ft | 423 kts | 31° |
| 2026-04-22 15:29 | 6.62750 | -73.23763 | 37098 ft | 438 kts | 31° |
| 2026-04-22 15:30 | 6.70021 | -73.19640 | 37101 ft | 456 kts | 31° |
| 2026-04-22 15:30 | 6.76470 | -73.15974 | 37100 ft | 458 kts | 31° |
| 2026-04-22 15:31 | 6.82023 | -73.12807 | 37102 ft | 459 kts | 31° |
| 2026-04-22 15:31 | 6.87589 | -73.09646 | 37093 ft | 459 kts | 31° |
| 2026-04-22 15:32 | 6.93174 | -73.06520 | 37126 ft | 459 kts | 30° |
| 2026-04-22 15:32 | 6.98797 | -73.03452 | 37135 ft | 459 kts | 30° |
| 2026-04-22 15:33 | 7.04417 | -73.00385 | 37130 ft | 459 kts | 30° |
| 2026-04-22 15:33 | 7.10029 | -72.97299 | 37130 ft | 459 kts | 30° |
| 2026-04-22 15:34 | 7.15595 | -72.94233 | 37158 ft | 459 kts | 31° |
| 2026-04-22 15:34 | 7.21208 | -72.91145 | 37156 ft | 459 kts | 31° |
| 2026-04-22 15:35 | 7.25869 | -72.88576 | 37162 ft | 459 kts | 31° |
| 2026-04-22 15:35 | 7.32427 | -72.84959 | 37155 ft | 460 kts | 30° |
| 2026-04-22 15:36 | 7.38045 | -72.81863 | 37149 ft | 460 kts | 31° |
| 2026-04-22 15:36 | 7.43668 | -72.78762 | 37167 ft | 461 kts | 30° |
| 2026-04-22 15:37 | 7.49296 | -72.75667 | 37160 ft | 461 kts | 31° |
| 2026-04-22 15:37 | 7.54928 | -72.72564 | 37144 ft | 461 kts | 31° |
| 2026-04-22 15:38 | 7.59601 | -72.69984 | 37152 ft | 461 kts | 31° |
| 2026-04-22 15:38 | 7.68960 | -72.64817 | 37104 ft | 461 kts | 30° |
| 2026-04-22 15:39 | 7.73673 | -72.62212 | 37093 ft | 462 kts | 30° |
| 2026-04-22 15:39 | 7.79323 | -72.59099 | 37082 ft | 462 kts | 30° |
| 2026-04-22 15:40 | 7.84978 | -72.55981 | 37087 ft | 463 kts | 30° |
| 2026-04-22 15:40 | 7.90630 | -72.52857 | 37086 ft | 463 kts | 30° |
| 2026-04-22 15:41 | 7.96299 | -72.49763 | 37086 ft | 464 kts | 29° |
| 2026-04-22 15:41 | 8.02057 | -72.46813 | 37070 ft | 464 kts | 28° |
| 2026-04-22 15:42 | 8.07805 | -72.43931 | 37075 ft | 465 kts | 28° |
| 2026-04-22 15:42 | 8.13582 | -72.40995 | 37059 ft | 465 kts | 28° |
| 2026-04-22 15:43 | 8.19347 | -72.38035 | 37067 ft | 465 kts | 28° |
| 2026-04-22 15:43 | 8.25061 | -72.34992 | 37043 ft | 464 kts | 30° |
| 2026-04-22 15:44 | 8.30704 | -72.31798 | 37042 ft | 464 kts | 31° |
| 2026-04-22 15:44 | 8.36326 | -72.28594 | 37041 ft | 464 kts | 30° |
| 2026-04-22 15:45 | 8.41978 | -72.25422 | 37040 ft | 465 kts | 30° |
| 2026-04-22 15:45 | 8.47643 | -72.22266 | 37045 ft | 465 kts | 30° |
| 2026-04-22 15:46 | 8.53307 | -72.19103 | 37035 ft | 465 kts | 30° |
| 2026-04-22 15:46 | 8.58971 | -72.15938 | 37030 ft | 465 kts | 30° |
| 2026-04-22 15:47 | 8.64627 | -72.12776 | 37030 ft | 464 kts | 30° |
| 2026-04-22 15:47 | 8.70283 | -72.09608 | 37026 ft | 465 kts | 30° |
| 2026-04-22 15:48 | 8.75946 | -72.06438 | 37017 ft | 465 kts | 30° |
| 2026-04-22 15:48 | 8.81607 | -72.03267 | 37011 ft | 465 kts | 30° |
| 2026-04-22 15:49 | 8.87273 | -72.00085 | 37013 ft | 466 kts | 30° |
| 2026-04-22 15:49 | 8.92941 | -71.96906 | 37023 ft | 466 kts | 30° |
| 2026-04-22 15:50 | 8.98497 | -71.93544 | 37013 ft | 464 kts | 39° |
| 2026-04-22 15:50 | 9.03327 | -71.89238 | 37009 ft | 463 kts | 44° |
| 2026-04-22 15:51 | 9.08100 | -71.84856 | 37010 ft | 463 kts | 44° |
| 2026-04-22 15:51 | 9.12883 | -71.80481 | 37015 ft | 464 kts | 44° |
| 2026-04-22 15:52 | 9.17684 | -71.76095 | 37013 ft | 464 kts | 44° |
| 2026-04-22 15:52 | 9.22436 | -71.71738 | 37013 ft | 464 kts | 44° |
| 2026-04-22 15:53 | 9.27217 | -71.67341 | 37016 ft | 464 kts | 44° |
| 2026-04-22 15:53 | 9.32011 | -71.62948 | 37016 ft | 464 kts | 44° |
| 2026-04-22 15:54 | 9.36794 | -71.58562 | 37013 ft | 464 kts | 44° |
| 2026-04-22 15:54 | 9.41587 | -71.54167 | 37016 ft | 465 kts | 44° |
| 2026-04-22 15:55 | 9.46379 | -71.49773 | 37009 ft | 465 kts | 44° |
| 2026-04-22 15:55 | 9.51169 | -71.45375 | 37014 ft | 464 kts | 44° |
| 2026-04-22 15:56 | 9.55949 | -71.40979 | 37009 ft | 464 kts | 44° |
| 2026-04-22 15:56 | 9.60732 | -71.36582 | 37011 ft | 464 kts | 44° |
| 2026-04-22 15:57 | 9.65515 | -71.32190 | 37006 ft | 464 kts | 44° |
| 2026-04-22 15:57 | 9.70298 | -71.27788 | 36993 ft | 464 kts | 44° |
| 2026-04-22 15:58 | 9.75075 | -71.23381 | 36986 ft | 464 kts | 44° |
| 2026-04-22 15:58 | 9.79863 | -71.18973 | 36991 ft | 465 kts | 44° |
| 2026-04-22 15:59 | 9.84654 | -71.14568 | 36993 ft | 465 kts | 44° |
| 2026-04-22 15:59 | 9.89444 | -71.10156 | 36997 ft | 465 kts | 44° |
| 2026-04-22 16:00 | 9.94234 | -71.05735 | 36994 ft | 465 kts | 44° |
| 2026-04-22 16:00 | 9.99021 | -71.01315 | 37003 ft | 465 kts | 44° |
| 2026-04-22 16:01 | 10.03779 | -70.96933 | 37005 ft | 465 kts | 44° |
| 2026-04-22 16:01 | 10.08580 | -70.92502 | 37002 ft | 466 kts | 44° |
| 2026-04-22 16:02 | 10.13379 | -70.88060 | 37003 ft | 466 kts | 44° |
| 2026-04-22 16:02 | 10.18178 | -70.83629 | 37015 ft | 466 kts | 44° |
| 2026-04-22 16:03 | 10.22980 | -70.79194 | 37017 ft | 466 kts | 44° |
| 2026-04-22 16:03 | 10.27779 | -70.74764 | 37014 ft | 466 kts | 44° |
| 2026-04-22 16:04 | 10.32570 | -70.70330 | 37022 ft | 466 kts | 44° |
| 2026-04-22 16:04 | 10.37365 | -70.65886 | 37023 ft | 466 kts | 44° |
| 2026-04-22 16:05 | 10.42161 | -70.61455 | 37012 ft | 466 kts | 44° |
| 2026-04-22 16:05 | 10.46957 | -70.57022 | 37024 ft | 466 kts | 44° |
| 2026-04-22 16:06 | 10.51721 | -70.52604 | 37026 ft | 467 kts | 44° |
| 2026-04-22 16:06 | 10.56517 | -70.48154 | 37034 ft | 467 kts | 44° |
| 2026-04-22 16:07 | 10.61315 | -70.43706 | 37035 ft | 466 kts | 44° |
| 2026-04-22 16:07 | 10.66107 | -70.39268 | 37032 ft | 466 kts | 44° |
| 2026-04-22 16:08 | 10.70884 | -70.34801 | 36965 ft | 467 kts | 44° |
| 2026-04-22 16:08 | 10.73272 | -70.32562 | 36712 ft | 467 kts | 44° |
| 2026-04-22 16:08 | 10.75665 | -70.30327 | 36465 ft | 467 kts | 44° |
| 2026-04-22 16:09 | 10.78061 | -70.28094 | 36217 ft | 468 kts | 44° |
| 2026-04-22 16:09 | 10.80462 | -70.25862 | 35965 ft | 468 kts | 43° |
| 2026-04-22 16:09 | 10.82868 | -70.23629 | 35720 ft | 469 kts | 43° |
| 2026-04-22 16:09 | 10.85278 | -70.21391 | 35489 ft | 469 kts | 43° |
| 2026-04-22 16:10 | 10.87691 | -70.19145 | 35255 ft | 470 kts | 43° |
| 2026-04-22 16:10 | 10.90116 | -70.16885 | 34734 ft | 473 kts | 43° |
| 2026-04-22 16:10 | 10.91726 | -70.15383 | 34130 ft | 478 kts | 43° |
| 2026-04-22 16:10 | 10.95013 | -70.12317 | 33208 ft | 476 kts | 43° |
| 2026-04-22 16:11 | 10.97438 | -70.10052 | 32606 ft | 472 kts | 43° |
| 2026-04-22 16:11 | 10.99846 | -70.07802 | 32008 ft | 468 kts | 42° |
| 2026-04-22 16:11 | 11.02235 | -70.05567 | 31409 ft | 464 kts | 42° |
| 2026-04-22 16:11 | 11.04603 | -70.03354 | 30827 ft | 461 kts | 42° |
| 2026-04-22 16:12 | 11.06965 | -70.01149 | 30242 ft | 458 kts | 42° |
| 2026-04-22 16:12 | 11.09309 | -69.98968 | 29602 ft | 456 kts | 42° |
| 2026-04-22 16:12 | 11.11635 | -69.96807 | 29037 ft | 451 kts | 42° |
| 2026-04-22 16:12 | 11.13938 | -69.94669 | 28468 ft | 446 kts | 42° |
| 2026-04-22 16:13 | 11.16224 | -69.92548 | 27915 ft | 442 kts | 42° |
| 2026-04-22 16:13 | 11.18480 | -69.90455 | 27367 ft | 437 kts | 42° |
| 2026-04-22 16:13 | 11.20717 | -69.88377 | 26836 ft | 432 kts | 42° |
| 2026-04-22 16:13 | 11.22927 | -69.86325 | 26316 ft | 428 kts | 42° |
| 2026-04-22 16:14 | 11.25092 | -69.84312 | 25828 ft | 424 kts | 42° |
| 2026-04-22 16:14 | 11.27258 | -69.82300 | 25337 ft | 419 kts | 42° |
| 2026-04-22 16:14 | 11.29403 | -69.80303 | 24853 ft | 415 kts | 42° |
| 2026-04-22 16:14 | 11.31520 | -69.78331 | 24364 ft | 411 kts | 42° |
| 2026-04-22 16:15 | 11.33627 | -69.76371 | 23886 ft | 407 kts | 42° |
| 2026-04-22 16:15 | 11.35709 | -69.74433 | 23359 ft | 404 kts | 42° |
| 2026-04-22 16:15 | 11.37779 | -69.72509 | 22842 ft | 400 kts | 42° |
| 2026-04-22 16:15 | 11.39821 | -69.70609 | 22350 ft | 396 kts | 42° |
| 2026-04-22 16:16 | 11.41849 | -69.68729 | 21847 ft | 393 kts | 41° |
| 2026-04-22 16:16 | 11.43899 | -69.66903 | 21356 ft | 390 kts | 40° |
| 2026-04-22 16:16 | 11.45960 | -69.65122 | 20850 ft | 387 kts | 39° |
| 2026-04-22 16:16 | 11.48022 | -69.63361 | 20327 ft | 385 kts | 39° |
| 2026-04-22 16:17 | 11.50072 | -69.61613 | 19840 ft | 384 kts | 39° |
| 2026-04-22 16:17 | 11.52120 | -69.59860 | 19332 ft | 383 kts | 39° |
| 2026-04-22 16:17 | 11.54151 | -69.58114 | 18835 ft | 381 kts | 39° |
| 2026-04-22 16:17 | 11.56175 | -69.56364 | 18324 ft | 380 kts | 39° |
| 2026-04-22 16:18 | 11.57508 | -69.55210 | 17955 ft | 379 kts | 38° |
| 2026-04-22 16:18 | 11.59515 | -69.53470 | 17452 ft | 376 kts | 39° |
| 2026-04-22 16:18 | 11.61502 | -69.51747 | 16964 ft | 374 kts | 39° |
| 2026-04-22 16:18 | 11.63473 | -69.50040 | 16485 ft | 371 kts | 39° |
| 2026-04-22 16:19 | 11.65442 | -69.48336 | 16013 ft | 369 kts | 39° |
| 2026-04-22 16:19 | 11.67392 | -69.46647 | 15535 ft | 367 kts | 40° |
| 2026-04-22 16:19 | 11.69331 | -69.44962 | 15065 ft | 365 kts | 39° |
| 2026-04-22 16:19 | 11.71259 | -69.43289 | 14594 ft | 363 kts | 39° |
| 2026-04-22 16:20 | 11.73185 | -69.41617 | 14122 ft | 362 kts | 40° |
| 2026-04-22 16:20 | 11.75096 | -69.39959 | 13679 ft | 359 kts | 40° |
| 2026-04-22 16:20 | 11.76994 | -69.38314 | 13189 ft | 356 kts | 39° |
| 2026-04-22 16:20 | 11.78879 | -69.36680 | 12670 ft | 354 kts | 40° |
| 2026-04-22 16:21 | 11.80747 | -69.35059 | 12195 ft | 351 kts | 40° |
| 2026-04-22 16:21 | 11.82596 | -69.33453 | 11747 ft | 347 kts | 40° |
| 2026-04-22 16:21 | 11.84436 | -69.31856 | 11254 ft | 345 kts | 40° |
| 2026-04-22 16:21 | 11.86256 | -69.30276 | 10767 ft | 343 kts | 40° |
| 2026-04-22 16:22 | 11.89829 | -69.27170 | 10133 ft | 328 kts | 40° |
| 2026-04-22 16:22 | 11.91513 | -69.25704 | 10019 ft | 314 kts | 40° |
| 2026-04-22 16:22 | 11.93145 | -69.24284 | 9897 ft | 302 kts | 40° |
| 2026-04-22 16:23 | 11.96727 | -69.22364 | 9304 ft | 290 kts | 15° |
| 2026-04-22 16:23 | 11.98661 | -69.21825 | 8946 ft | 287 kts | 15° |
| 2026-04-22 16:23 | 12.00578 | -69.21294 | 8544 ft | 285 kts | 15° |
| 2026-04-22 16:24 | 12.02488 | -69.20765 | 8155 ft | 283 kts | 16° |
| 2026-04-22 16:24 | 12.06270 | -69.19717 | 7338 ft | 280 kts | 16° |
| 2026-04-22 16:24 | 12.08145 | -69.19193 | 6933 ft | 278 kts | 17° |
| 2026-04-22 16:25 | 12.10007 | -69.18672 | 6533 ft | 277 kts | 16° |
| 2026-04-22 16:25 | 12.13580 | -69.17681 | 6229 ft | 253 kts | 17° |
| 2026-04-22 16:25 | 12.15247 | -69.17222 | 6103 ft | 242 kts | 17° |
| 2026-04-22 16:26 | 12.16836 | -69.16784 | 5979 ft | 231 kts | 17° |
| 2026-04-22 16:26 | 12.18364 | -69.16360 | 5772 ft | 225 kts | 17° |
| 2026-04-22 16:26 | 12.19866 | -69.15942 | 5498 ft | 223 kts | 17° |
| 2026-04-22 16:26 | 12.21346 | -69.15493 | 5222 ft | 220 kts | 27° |
| 2026-04-22 16:27 | 12.22394 | -69.14468 | 5073 ft | 207 kts | 68° |
| 2026-04-22 16:27 | 12.22495 | -69.13065 | 4956 ft | 198 kts | 103° |
| 2026-04-22 16:27 | 12.22178 | -69.11719 | 4820 ft | 193 kts | 102° |
| 2026-04-22 16:27 | 12.21896 | -69.10385 | 4662 ft | 190 kts | 101° |
| 2026-04-22 16:28 | 12.21640 | -69.09094 | 4549 ft | 176 kts | 101° |
| 2026-04-22 16:28 | 12.21405 | -69.07934 | 4231 ft | 163 kts | 101° |
| 2026-04-22 16:28 | 12.21173 | -69.06817 | 3766 ft | 159 kts | 101° |
| 2026-04-22 16:28 | 12.20942 | -69.05711 | 3300 ft | 158 kts | 101° |
| 2026-04-22 16:29 | 12.20715 | -69.04629 | 2839 ft | 156 kts | 103° |
| 2026-04-22 16:29 | 12.20484 | -69.03533 | 2330 ft | 160 kts | 101° |
| 2026-04-22 16:29 | 12.20249 | -69.02417 | 1899 ft | 159 kts | 102° |
| 2026-04-22 16:29 | 12.20021 | -69.01335 | 1492 ft | 153 kts | 100° |
| 2026-04-22 16:30 | 12.19880 | -69.00634 | 1251 ft | 151 kts | 99° |
| 2026-04-22 16:30 | 12.19597 | -68.99242 | 743 ft | 147 kts | 100° |
| 2026-04-22 16:30 | 12.19366 | -68.98240 | 358 ft | 141 kts | 102° |
| 2026-04-22 16:30 | 12.19172 | -68.97295 | 161 ft | 133 kts | 101° |
| 2026-04-22 16:31 | 12.18977 | -68.96387 | 58 ft | 128 kts | 99° |
| 2026-04-22 16:31 | 12.18818 | -68.95627 | 40 ft | 86 kts | 103° |
| 2026-04-22 16:31 | 12.18727 | -68.95203 | 42 ft | 36 kts | 102° |
| 2026-04-22 16:31 | 12.18680 | -68.94980 | 42 ft | 30 kts | 102° |
| 2026-04-22 16:32 | 12.18638 | -68.94779 | 43 ft | 28 kts | 101° |
| 2026-04-22 16:32 | 12.18598 | -68.94584 | 47 ft | 28 kts | 102° |
| 2026-04-22 16:32 | 12.18554 | -68.94458 | 45 ft | 12 kts | 155° |
| 2026-04-22 16:32 | 12.18472 | -68.94474 | 46 ft | 11 kts | 192° |
| 2026-04-22 16:33 | 12.18410 | -68.94511 | 45 ft | 10 kts | 241° |
| 2026-04-22 16:33 | 12.18415 | -68.94579 | 45 ft | 9 kts | 283° |
| 2026-04-22 16:33 | 12.18430 | -68.94641 | 45 ft | 9 kts | 282° |
| 2026-04-22 16:33 | 12.18443 | -68.94702 | 45 ft | 10 kts | 282° |
| 2026-04-22 16:34 | 12.18473 | -68.94854 | 44 ft | 33 kts | 283° |
| 2026-04-22 16:34 | 12.18511 | -68.95024 | 42 ft | 23 kts | 283° |
| 2026-04-22 16:34 | 12.18541 | -68.95170 | 44 ft | 20 kts | 283° |
| 2026-04-22 16:34 | 12.18569 | -68.95298 | 43 ft | 18 kts | 282° |
| 2026-04-22 16:35 | 12.18594 | -68.95416 | 43 ft | 16 kts | 282° |
| 2026-04-22 16:35 | 12.18616 | -68.95526 | 43 ft | 15 kts | 282° |
| 2026-04-22 16:35 | 12.18638 | -68.95627 | 43 ft | 14 kts | 282° |
| 2026-04-22 16:35 | 12.18631 | -68.95662 | 43 ft | 3 kts | 202° |
| 2026-04-22 16:36 | 12.18590 | -68.95672 | 41 ft | 7 kts | 192° |
| 2026-04-22 16:36 | 12.18551 | -68.95680 | 43 ft | 4 kts | 192° |
| 2026-04-22 16:36 | 12.18546 | -68.95681 | 43 ft | 0 kts | 192° |